sensor_id;sensor_type;location;lat;lon;timestamp;temperature;humidity
2945;DHT22;1482;51.398;7.128;2023-04-03T00:00:41;2.40;99.90
2945;DHT22;1482;51.398;7.128;2023-04-03T00:03:07;2.40;99.90
2945;DHT22;1482;51.398;7.128;2023-04-03T00:05:32;2.30;99.90
2945;DHT22;1482;51.398;7.128;2023-04-03T00:07:58;2.30;99.90
2945;DHT22;1482;51.398;7.128;2023-04-03T00:10:24;2.30;99.90
2945;DHT22;1482;51.398;7.128;2023-04-03T00:12:49;2.20;99.90
2945;DHT22;1482;51.398;7.128;2023-04-03T00:15:15;2.20;99.90
2945;DHT22;1482;51.398;7.128;2023-04-03T00:17:41;2.20;99.90
2945;DHT22;1482;51.398;7.128;2023-04-03T00:20:07;2.20;99.90
2945;DHT22;1482;51.398;7.128;2023-04-03T00:22:33;2.10;99.90
2945;DHT22;1482;51.398;7.128;2023-04-03T00:24:58;2.10;99.90
2945;DHT22;1482;51.398;7.128;2023-04-03T00:27:24;2.10;99.90
2945;DHT22;1482;51.398;7.128;2023-04-03T00:29:49;2.10;99.90
2945;DHT22;1482;51.398;7.128;2023-04-03T00:32:15;2.10;99.90
2945;DHT22;1482;51.398;7.128;2023-04-03T00:34:40;2.10;99.90
2945;DHT22;1482;51.398;7.128;2023-04-03T00:37:06;1.90;99.90
2945;DHT22;1482;51.398;7.128;2023-04-03T00:39:31;2.00;99.90
2945;DHT22;1482;51.398;7.128;2023-04-03T00:41:57;2.00;99.90
2945;DHT22;1482;51.398;7.128;2023-04-03T00:47:02;2.00;99.90
2945;DHT22;1482;51.398;7.128;2023-04-03T00:49:29;2.00;99.90
2945;DHT22;1482;51.398;7.128;2023-04-03T00:51:55;1.80;99.90
2945;DHT22;1482;51.398;7.128;2023-04-03T00:54:21;1.80;99.90
2945;DHT22;1482;51.398;7.128;2023-04-03T00:56:48;1.70;99.90
2945;DHT22;1482;51.398;7.128;2023-04-03T00:59:18;1.70;99.90
2945;DHT22;1482;51.398;7.128;2023-04-03T01:01:48;1.70;99.90
2945;DHT22;1482;51.398;7.128;2023-04-03T01:04:35;1.70;99.90
2945;DHT22;1482;51.398;7.128;2023-04-03T01:07:05;1.60;99.90
2945;DHT22;1482;51.398;7.128;2023-04-03T01:09:32;1.60;99.90
2945;DHT22;1482;51.398;7.128;2023-04-03T01:12:22;1.60;99.90
2945;DHT22;1482;51.398;7.128;2023-04-03T01:14:56;1.60;99.90
2945;DHT22;1482;51.398;7.128;2023-04-03T01:17:36;1.60;99.90
2945;DHT22;1482;51.398;7.128;2023-04-03T01:25:47;1.60;99.90
2945;DHT22;1482;51.398;7.128;2023-04-03T01:28:17;1.50;99.90
2945;DHT22;1482;51.398;7.128;2023-04-03T01:33:20;1.30;99.90
2945;DHT22;1482;51.398;7.128;2023-04-03T01:35:45;1.40;99.90
2945;DHT22;1482;51.398;7.128;2023-04-03T01:38:11;1.30;99.90
2945;DHT22;1482;51.398;7.128;2023-04-03T01:40:37;1.20;99.90
2945;DHT22;1482;51.398;7.128;2023-04-03T01:43:02;1.20;99.90
2945;DHT22;1482;51.398;7.128;2023-04-03T01:45:28;1.30;99.90
2945;DHT22;1482;51.398;7.128;2023-04-03T01:47:54;1.30;99.90
2945;DHT22;1482;51.398;7.128;2023-04-03T01:50:20;1.20;1.00
2945;DHT22;1482;51.398;7.128;2023-04-03T01:52:45;1.20;1.00
2945;DHT22;1482;51.398;7.128;2023-04-03T01:55:11;1.20;1.00
2945;DHT22;1482;51.398;7.128;2023-04-03T01:57:36;1.10;1.00
2945;DHT22;1482;51.398;7.128;2023-04-03T02:00:02;1.20;1.00
2945;DHT22;1482;51.398;7.128;2023-04-03T02:02:28;1.10;1.00
2945;DHT22;1482;51.398;7.128;2023-04-03T02:04:54;1.10;1.00
2945;DHT22;1482;51.398;7.128;2023-04-03T02:07:20;1.20;1.00
2945;DHT22;1482;51.398;7.128;2023-04-03T02:09:45;1.10;1.00
2945;DHT22;1482;51.398;7.128;2023-04-03T02:12:11;1.20;1.00
2945;DHT22;1482;51.398;7.128;2023-04-03T02:14:36;1.10;1.00
2945;DHT22;1482;51.398;7.128;2023-04-03T02:17:02;1.20;1.00
2945;DHT22;1482;51.398;7.128;2023-04-03T02:19:34;1.10;1.00
2945;DHT22;1482;51.398;7.128;2023-04-03T02:22:01;1.20;1.00
2945;DHT22;1482;51.398;7.128;2023-04-03T02:24:26;1.10;1.00
2945;DHT22;1482;51.398;7.128;2023-04-03T02:26:52;1.10;1.00
2945;DHT22;1482;51.398;7.128;2023-04-03T02:29:18;1.20;1.00
2945;DHT22;1482;51.398;7.128;2023-04-03T02:31:44;1.10;1.00
2945;DHT22;1482;51.398;7.128;2023-04-03T02:34:09;1.20;1.00
2945;DHT22;1482;51.398;7.128;2023-04-03T02:36:35;1.20;1.00
2945;DHT22;1482;51.398;7.128;2023-04-03T02:39:01;1.20;1.00
2945;DHT22;1482;51.398;7.128;2023-04-03T02:41:26;1.10;1.00
2945;DHT22;1482;51.398;7.128;2023-04-03T02:43:58;1.10;1.00
2945;DHT22;1482;51.398;7.128;2023-04-03T02:46:24;1.00;1.00
2945;DHT22;1482;51.398;7.128;2023-04-03T02:48:50;1.10;1.00
2945;DHT22;1482;51.398;7.128;2023-04-03T02:51:15;1.00;1.00
2945;DHT22;1482;51.398;7.128;2023-04-03T02:53:41;1.00;1.00
2945;DHT22;1482;51.398;7.128;2023-04-03T02:56:06;0.90;1.00
2945;DHT22;1482;51.398;7.128;2023-04-03T02:58:32;1.00;1.00
2945;DHT22;1482;51.398;7.128;2023-04-03T03:00:58;0.90;1.00
2945;DHT22;1482;51.398;7.128;2023-04-03T03:03:23;0.90;1.00
2945;DHT22;1482;51.398;7.128;2023-04-03T03:05:49;0.90;1.00
2945;DHT22;1482;51.398;7.128;2023-04-03T03:08:14;1.00;1.00
2945;DHT22;1482;51.398;7.128;2023-04-03T03:10:40;1.00;1.00
2945;DHT22;1482;51.398;7.128;2023-04-03T03:13:06;1.10;1.00
2945;DHT22;1482;51.398;7.128;2023-04-03T03:15:31;0.90;1.00
2945;DHT22;1482;51.398;7.128;2023-04-03T03:17:57;0.90;1.00
2945;DHT22;1482;51.398;7.128;2023-04-03T03:20:22;0.80;1.00
2945;DHT22;1482;51.398;7.128;2023-04-03T03:22:48;0.90;1.00
2945;DHT22;1482;51.398;7.128;2023-04-03T03:25:13;0.80;1.00
2945;DHT22;1482;51.398;7.128;2023-04-03T03:27:40;0.80;33.30
2945;DHT22;1482;51.398;7.128;2023-04-03T03:30:06;0.80;8.20
2945;DHT22;1482;51.398;7.128;2023-04-03T03:32:31;0.80;1.00
2945;DHT22;1482;51.398;7.128;2023-04-03T03:34:57;0.80;1.00
2945;DHT22;1482;51.398;7.128;2023-04-03T03:37:22;0.80;1.00
2945;DHT22;1482;51.398;7.128;2023-04-03T03:39:48;0.80;1.00
2945;DHT22;1482;51.398;7.128;2023-04-03T03:42:14;0.80;1.00
2945;DHT22;1482;51.398;7.128;2023-04-03T03:44:39;0.80;1.00
2945;DHT22;1482;51.398;7.128;2023-04-03T03:47:05;0.70;1.00
2945;DHT22;1482;51.398;7.128;2023-04-03T03:49:31;0.80;11.00
2945;DHT22;1482;51.398;7.128;2023-04-03T03:51:57;0.80;1.00
2945;DHT22;1482;51.398;7.128;2023-04-03T03:54:22;0.90;1.00
2945;DHT22;1482;51.398;7.128;2023-04-03T03:56:48;0.90;1.00
2945;DHT22;1482;51.398;7.128;2023-04-03T03:59:13;0.70;1.00
2945;DHT22;1482;51.398;7.128;2023-04-03T04:01:39;0.80;1.00
2945;DHT22;1482;51.398;7.128;2023-04-03T04:04:05;0.80;1.00
2945;DHT22;1482;51.398;7.128;2023-04-03T04:06:30;0.70;1.00
2945;DHT22;1482;51.398;7.128;2023-04-03T04:08:56;0.60;1.00
2945;DHT22;1482;51.398;7.128;2023-04-03T04:11:21;0.60;1.00
2945;DHT22;1482;51.398;7.128;2023-04-03T04:13:47;0.60;38.50
2945;DHT22;1482;51.398;7.128;2023-04-03T04:16:13;0.50;76.90
2945;DHT22;1482;51.398;7.128;2023-04-03T04:18:38;0.40;99.90
2945;DHT22;1482;51.398;7.128;2023-04-03T04:21:04;0.50;99.90
2945;DHT22;1482;51.398;7.128;2023-04-03T04:23:29;0.50;99.90
2945;DHT22;1482;51.398;7.128;2023-04-03T04:25:55;0.50;99.90
2945;DHT22;1482;51.398;7.128;2023-04-03T04:28:20;0.50;99.90
2945;DHT22;1482;51.398;7.128;2023-04-03T04:30:46;0.50;99.90
2945;DHT22;1482;51.398;7.128;2023-04-03T04:33:12;0.50;99.90
2945;DHT22;1482;51.398;7.128;2023-04-03T04:35:39;0.50;99.90
2945;DHT22;1482;51.398;7.128;2023-04-03T04:38:06;0.50;60.10
2945;DHT22;1482;51.398;7.128;2023-04-03T04:40:33;0.40;99.90
2945;DHT22;1482;51.398;7.128;2023-04-03T04:42:59;0.50;99.90
2945;DHT22;1482;51.398;7.128;2023-04-03T04:45:25;0.50;99.90
2945;DHT22;1482;51.398;7.128;2023-04-03T04:47:50;0.50;40.20
2945;DHT22;1482;51.398;7.128;2023-04-03T04:50:18;0.50;38.10
2945;DHT22;1482;51.398;7.128;2023-04-03T04:52:43;0.40;99.90
2945;DHT22;1482;51.398;7.128;2023-04-03T04:55:09;0.40;99.90
2945;DHT22;1482;51.398;7.128;2023-04-03T04:57:34;0.40;99.90
2945;DHT22;1482;51.398;7.128;2023-04-03T05:00:00;0.50;99.90
2945;DHT22;1482;51.398;7.128;2023-04-03T05:02:26;0.40;65.70
2945;DHT22;1482;51.398;7.128;2023-04-03T05:04:51;0.50;99.90
2945;DHT22;1482;51.398;7.128;2023-04-03T05:07:17;0.50;3.50
2945;DHT22;1482;51.398;7.128;2023-04-03T05:09:43;0.50;99.90
2945;DHT22;1482;51.398;7.128;2023-04-03T05:12:09;0.60;99.90
2945;DHT22;1482;51.398;7.128;2023-04-03T05:14:34;0.90;99.90
2945;DHT22;1482;51.398;7.128;2023-04-03T05:17:00;1.50;99.90
2945;DHT22;1482;51.398;7.128;2023-04-03T05:19:25;2.00;1.00
2945;DHT22;1482;51.398;7.128;2023-04-03T05:21:51;2.90;99.90
2945;DHT22;1482;51.398;7.128;2023-04-03T05:24:17;3.50;99.90
2945;DHT22;1482;51.398;7.128;2023-04-03T05:26:43;4.50;99.90
2945;DHT22;1482;51.398;7.128;2023-04-03T05:29:09;5.10;5.00
2945;DHT22;1482;51.398;7.128;2023-04-03T05:31:35;5.80;1.00
2945;DHT22;1482;51.398;7.128;2023-04-03T05:34:01;6.30;1.00
2945;DHT22;1482;51.398;7.128;2023-04-03T05:36:26;6.20;1.00
2945;DHT22;1482;51.398;7.128;2023-04-03T05:38:52;6.90;1.00
2945;DHT22;1482;51.398;7.128;2023-04-03T05:41:19;7.70;1.00
2945;DHT22;1482;51.398;7.128;2023-04-03T05:43:46;7.20;1.00
2945;DHT22;1482;51.398;7.128;2023-04-03T05:46:13;7.00;1.00
2945;DHT22;1482;51.398;7.128;2023-04-03T05:48:38;6.20;1.00
2945;DHT22;1482;51.398;7.128;2023-04-03T05:51:06;6.60;1.00
2945;DHT22;1482;51.398;7.128;2023-04-03T05:53:35;8.00;1.00
2945;DHT22;1482;51.398;7.128;2023-04-03T05:56:02;10.10;1.00
2945;DHT22;1482;51.398;7.128;2023-04-03T05:58:28;10.50;1.00
2945;DHT22;1482;51.398;7.128;2023-04-03T06:00:53;11.80;1.00
2945;DHT22;1482;51.398;7.128;2023-04-03T06:03:19;13.70;1.00
2945;DHT22;1482;51.398;7.128;2023-04-03T06:05:45;14.70;1.00
2945;DHT22;1482;51.398;7.128;2023-04-03T06:08:11;16.20;1.00
2945;DHT22;1482;51.398;7.128;2023-04-03T06:10:38;18.00;1.00
2945;DHT22;1482;51.398;7.128;2023-04-03T06:13:03;18.20;1.00
2945;DHT22;1482;51.398;7.128;2023-04-03T06:15:29;19.30;1.00
2945;DHT22;1482;51.398;7.128;2023-04-03T06:17:54;18.10;1.00
2945;DHT22;1482;51.398;7.128;2023-04-03T06:20:20;18.70;1.00
2945;DHT22;1482;51.398;7.128;2023-04-03T06:22:47;18.80;1.00
2945;DHT22;1482;51.398;7.128;2023-04-03T06:25:13;16.40;1.00
2945;DHT22;1482;51.398;7.128;2023-04-03T06:27:38;17.90;1.00
2945;DHT22;1482;51.398;7.128;2023-04-03T06:30:05;19.10;1.00
2945;DHT22;1482;51.398;7.128;2023-04-03T06:32:31;20.20;1.00
2945;DHT22;1482;51.398;7.128;2023-04-03T06:34:57;19.60;1.00
2945;DHT22;1482;51.398;7.128;2023-04-03T06:37:24;21.50;1.00
2945;DHT22;1482;51.398;7.128;2023-04-03T06:39:54;20.70;1.00
2945;DHT22;1482;51.398;7.128;2023-04-03T06:42:20;22.00;1.00
2945;DHT22;1482;51.398;7.128;2023-04-03T06:44:46;20.70;1.00
2945;DHT22;1482;51.398;7.128;2023-04-03T06:47:14;22.40;1.00
2945;DHT22;1482;51.398;7.128;2023-04-03T06:49:39;21.40;1.00
2945;DHT22;1482;51.398;7.128;2023-04-03T06:52:05;20.50;1.00
2945;DHT22;1482;51.398;7.128;2023-04-03T06:54:31;19.90;1.00
2945;DHT22;1482;51.398;7.128;2023-04-03T06:56:57;21.10;1.00
2945;DHT22;1482;51.398;7.128;2023-04-03T06:59:23;22.00;1.00
2945;DHT22;1482;51.398;7.128;2023-04-03T07:01:49;20.00;1.00
2945;DHT22;1482;51.398;7.128;2023-04-03T07:04:14;19.50;1.00
2945;DHT22;1482;51.398;7.128;2023-04-03T07:06:40;20.50;1.00
2945;DHT22;1482;51.398;7.128;2023-04-03T07:09:08;18.80;1.00
2945;DHT22;1482;51.398;7.128;2023-04-03T07:11:34;18.30;1.00
2945;DHT22;1482;51.398;7.128;2023-04-03T07:14:02;20.10;1.00
2945;DHT22;1482;51.398;7.128;2023-04-03T07:16:27;21.60;1.00
2945;DHT22;1482;51.398;7.128;2023-04-03T07:18:53;23.70;1.00
2945;DHT22;1482;51.398;7.128;2023-04-03T07:21:19;22.70;1.00
2945;DHT22;1482;51.398;7.128;2023-04-03T07:23:44;23.80;1.00
2945;DHT22;1482;51.398;7.128;2023-04-03T07:26:10;25.20;1.00
2945;DHT22;1482;51.398;7.128;2023-04-03T07:28:36;22.30;1.00
2945;DHT22;1482;51.398;7.128;2023-04-03T07:31:06;23.70;1.00
2945;DHT22;1482;51.398;7.128;2023-04-03T07:33:34;23.90;1.00
2945;DHT22;1482;51.398;7.128;2023-04-03T07:36:00;22.80;1.00
2945;DHT22;1482;51.398;7.128;2023-04-03T07:38:26;20.70;1.00
2945;DHT22;1482;51.398;7.128;2023-04-03T07:40:52;21.80;1.00
2945;DHT22;1482;51.398;7.128;2023-04-03T07:43:20;19.70;1.00
2945;DHT22;1482;51.398;7.128;2023-04-03T07:45:47;20.10;1.00
2945;DHT22;1482;51.398;7.128;2023-04-03T07:48:16;22.70;1.00
2945;DHT22;1482;51.398;7.128;2023-04-03T07:50:43;22.90;1.00
2945;DHT22;1482;51.398;7.128;2023-04-03T07:53:09;24.20;1.00
2945;DHT22;1482;51.398;7.128;2023-04-03T07:55:35;26.20;1.00
2945;DHT22;1482;51.398;7.128;2023-04-03T07:58:11;25.50;1.00
2945;DHT22;1482;51.398;7.128;2023-04-03T08:00:37;25.80;1.00
2945;DHT22;1482;51.398;7.128;2023-04-03T08:03:03;25.10;1.00
2945;DHT22;1482;51.398;7.128;2023-04-03T08:05:29;23.30;1.00
2945;DHT22;1482;51.398;7.128;2023-04-03T08:07:54;23.20;1.00
2945;DHT22;1482;51.398;7.128;2023-04-03T08:10:20;23.70;1.00
2945;DHT22;1482;51.398;7.128;2023-04-03T08:12:47;25.20;1.00
2945;DHT22;1482;51.398;7.128;2023-04-03T08:15:12;26.40;1.00
2945;DHT22;1482;51.398;7.128;2023-04-03T08:17:38;25.10;1.00
2945;DHT22;1482;51.398;7.128;2023-04-03T08:20:05;24.20;1.00
2945;DHT22;1482;51.398;7.128;2023-04-03T08:22:32;22.10;1.00
2945;DHT22;1482;51.398;7.128;2023-04-03T08:24:58;21.60;1.00
2945;DHT22;1482;51.398;7.128;2023-04-03T08:27:23;22.10;1.00
2945;DHT22;1482;51.398;7.128;2023-04-03T08:29:49;20.50;1.00
2945;DHT22;1482;51.398;7.128;2023-04-03T08:32:14;19.60;1.00
2945;DHT22;1482;51.398;7.128;2023-04-03T08:34:41;17.00;1.00
2945;DHT22;1482;51.398;7.128;2023-04-03T08:37:06;15.60;1.00
2945;DHT22;1482;51.398;7.128;2023-04-03T08:39:32;12.50;1.00
2945;DHT22;1482;51.398;7.128;2023-04-03T08:41:59;11.10;1.00
2945;DHT22;1482;51.398;7.128;2023-04-03T08:45:09;10.80;1.00
2945;DHT22;1482;51.398;7.128;2023-04-03T08:47:47;10.30;1.00
2945;DHT22;1482;51.398;7.128;2023-04-03T08:50:20;10.20;1.00
2945;DHT22;1482;51.398;7.128;2023-04-03T08:52:51;9.80;1.00
2945;DHT22;1482;51.398;7.128;2023-04-03T08:57:44;9.50;1.00
2945;DHT22;1482;51.398;7.128;2023-04-03T09:02:54;9.40;1.00
2945;DHT22;1482;51.398;7.128;2023-04-03T09:05:31;8.90;1.00
2945;DHT22;1482;51.398;7.128;2023-04-03T09:08:05;8.60;1.00
2945;DHT22;1482;51.398;7.128;2023-04-03T09:10:34;8.50;1.00
2945;DHT22;1482;51.398;7.128;2023-04-03T09:13:08;8.20;1.00
2945;DHT22;1482;51.398;7.128;2023-04-03T09:15:36;8.10;1.00
2945;DHT22;1482;51.398;7.128;2023-04-03T09:18:21;8.30;1.00
2945;DHT22;1482;51.398;7.128;2023-04-03T09:21:19;8.40;1.00
2945;DHT22;1482;51.398;7.128;2023-04-03T09:23:50;9.00;1.00
2945;DHT22;1482;51.398;7.128;2023-04-03T09:26:24;9.00;1.00
2945;DHT22;1482;51.398;7.128;2023-04-03T09:28:57;8.30;1.00
2945;DHT22;1482;51.398;7.128;2023-04-03T09:31:29;8.60;1.00
2945;DHT22;1482;51.398;7.128;2023-04-03T09:34:06;8.50;1.00
2945;DHT22;1482;51.398;7.128;2023-04-03T09:36:45;8.70;1.00
2945;DHT22;1482;51.398;7.128;2023-04-03T09:39:15;8.90;1.00
2945;DHT22;1482;51.398;7.128;2023-04-03T09:41:42;8.80;1.00
2945;DHT22;1482;51.398;7.128;2023-04-03T09:44:25;9.30;1.00
2945;DHT22;1482;51.398;7.128;2023-04-03T09:46:51;8.90;1.00
2945;DHT22;1482;51.398;7.128;2023-04-03T09:49:18;8.80;1.00
2945;DHT22;1482;51.398;7.128;2023-04-03T09:51:45;8.60;1.00
2945;DHT22;1482;51.398;7.128;2023-04-03T09:54:32;8.20;1.00
2945;DHT22;1482;51.398;7.128;2023-04-03T09:57:04;8.10;1.00
2945;DHT22;1482;51.398;7.128;2023-04-03T09:59:31;8.20;1.00
2945;DHT22;1482;51.398;7.128;2023-04-03T10:02:03;8.40;1.00
2945;DHT22;1482;51.398;7.128;2023-04-03T10:04:41;9.10;1.00
2945;DHT22;1482;51.398;7.128;2023-04-03T10:07:43;8.90;1.00
2945;DHT22;1482;51.398;7.128;2023-04-03T10:10:16;9.00;1.00
2945;DHT22;1482;51.398;7.128;2023-04-03T10:12:43;9.20;1.00
2945;DHT22;1482;51.398;7.128;2023-04-03T10:15:14;8.60;1.00
2945;DHT22;1482;51.398;7.128;2023-04-03T10:20:59;8.60;1.00
2945;DHT22;1482;51.398;7.128;2023-04-03T10:23:45;8.70;1.00
2945;DHT22;1482;51.398;7.128;2023-04-03T10:26:29;9.10;1.00
2945;DHT22;1482;51.398;7.128;2023-04-03T10:29:27;9.40;1.00
2945;DHT22;1482;51.398;7.128;2023-04-03T10:34:43;9.70;1.00
2945;DHT22;1482;51.398;7.128;2023-04-03T10:37:22;10.40;1.00
2945;DHT22;1482;51.398;7.128;2023-04-03T10:39:58;10.40;1.00
2945;DHT22;1482;51.398;7.128;2023-04-03T10:53:30;10.10;1.00
2945;DHT22;1482;51.398;7.128;2023-04-03T10:59:05;10.40;1.00
2945;DHT22;1482;51.398;7.128;2023-04-03T11:01:37;10.00;1.00
2945;DHT22;1482;51.398;7.128;2023-04-03T11:04:06;10.10;1.00
2945;DHT22;1482;51.398;7.128;2023-04-03T11:06:41;9.60;1.00
2945;DHT22;1482;51.398;7.128;2023-04-03T11:11:46;9.70;1.00
2945;DHT22;1482;51.398;7.128;2023-04-03T11:14:26;9.50;1.00
2945;DHT22;1482;51.398;7.128;2023-04-03T11:17:04;9.30;1.00
2945;DHT22;1482;51.398;7.128;2023-04-03T11:22:27;9.70;1.00
2945;DHT22;1482;51.398;7.128;2023-04-03T11:25:02;9.20;1.00
2945;DHT22;1482;51.398;7.128;2023-04-03T11:27:37;9.30;1.00
2945;DHT22;1482;51.398;7.128;2023-04-03T11:30:07;9.70;1.00
2945;DHT22;1482;51.398;7.128;2023-04-03T11:35:10;9.60;1.00
2945;DHT22;1482;51.398;7.128;2023-04-03T11:37:47;9.70;1.00
2945;DHT22;1482;51.398;7.128;2023-04-03T11:42:47;9.80;1.00
2945;DHT22;1482;51.398;7.128;2023-04-03T11:47:56;9.20;1.00
2945;DHT22;1482;51.398;7.128;2023-04-03T12:16:33;9.70;1.00
2945;DHT22;1482;51.398;7.128;2023-04-03T12:19:49;9.80;1.00
2945;DHT22;1482;51.398;7.128;2023-04-03T12:22:12;10.00;1.00
2945;DHT22;1482;51.398;7.128;2023-04-03T12:24:40;10.00;1.00
2945;DHT22;1482;51.398;7.128;2023-04-03T12:27:25;9.70;1.00
2945;DHT22;1482;51.398;7.128;2023-04-03T12:32:56;9.90;1.00
2945;DHT22;1482;51.398;7.128;2023-04-03T12:35:49;10.10;1.00
2945;DHT22;1482;51.398;7.128;2023-04-03T12:46:33;9.40;1.00
2945;DHT22;1482;51.398;7.128;2023-04-03T12:49:00;9.60;1.00
2945;DHT22;1482;51.398;7.128;2023-04-03T12:51:41;9.40;1.00
2945;DHT22;1482;51.398;7.128;2023-04-03T12:54:16;9.60;1.00
2945;DHT22;1482;51.398;7.128;2023-04-03T12:56:42;9.50;1.00
2945;DHT22;1482;51.398;7.128;2023-04-03T12:59:22;9.50;1.00
2945;DHT22;1482;51.398;7.128;2023-04-03T13:02:01;9.40;1.00
2945;DHT22;1482;51.398;7.128;2023-04-03T13:04:28;9.20;1.00
2945;DHT22;1482;51.398;7.128;2023-04-03T13:06:54;8.90;1.00
2945;DHT22;1482;51.398;7.128;2023-04-03T13:09:24;9.10;1.00
2945;DHT22;1482;51.398;7.128;2023-04-03T13:11:59;9.20;1.00
2945;DHT22;1482;51.398;7.128;2023-04-03T13:14:27;9.20;1.00
2945;DHT22;1482;51.398;7.128;2023-04-03T13:17:03;9.20;1.00
2945;DHT22;1482;51.398;7.128;2023-04-03T13:19:30;9.00;1.00
2945;DHT22;1482;51.398;7.128;2023-04-03T13:22:02;9.00;1.00
2945;DHT22;1482;51.398;7.128;2023-04-03T13:24:32;9.10;1.00
2945;DHT22;1482;51.398;7.128;2023-04-03T13:26:59;9.30;1.00
2945;DHT22;1482;51.398;7.128;2023-04-03T13:29:28;9.20;1.00
2945;DHT22;1482;51.398;7.128;2023-04-03T13:31:55;9.50;1.00
2945;DHT22;1482;51.398;7.128;2023-04-03T13:34:23;9.70;1.00
2945;DHT22;1482;51.398;7.128;2023-04-03T13:41:55;9.30;1.00
2945;DHT22;1482;51.398;7.128;2023-04-03T13:46:54;9.20;1.00
2945;DHT22;1482;51.398;7.128;2023-04-03T13:49:36;9.40;1.00
2945;DHT22;1482;51.398;7.128;2023-04-03T13:55:24;9.40;1.00
2945;DHT22;1482;51.398;7.128;2023-04-03T13:57:56;9.20;1.00
2945;DHT22;1482;51.398;7.128;2023-04-03T14:02:57;9.20;1.00
2945;DHT22;1482;51.398;7.128;2023-04-03T14:05:23;8.90;1.00
2945;DHT22;1482;51.398;7.128;2023-04-03T14:07:51;8.70;1.00
2945;DHT22;1482;51.398;7.128;2023-04-03T14:10:17;8.70;1.00
2945;DHT22;1482;51.398;7.128;2023-04-03T14:12:43;8.70;1.00
2945;DHT22;1482;51.398;7.128;2023-04-03T14:15:19;8.60;1.00
2945;DHT22;1482;51.398;7.128;2023-04-03T14:17:45;8.80;1.00
2945;DHT22;1482;51.398;7.128;2023-04-03T14:20:16;8.60;1.00
2945;DHT22;1482;51.398;7.128;2023-04-03T14:22:42;8.50;1.00
2945;DHT22;1482;51.398;7.128;2023-04-03T14:25:07;8.40;1.00
2945;DHT22;1482;51.398;7.128;2023-04-03T14:27:37;8.40;1.00
2945;DHT22;1482;51.398;7.128;2023-04-03T14:30:05;8.40;1.00
2945;DHT22;1482;51.398;7.128;2023-04-03T14:32:31;8.30;1.00
2945;DHT22;1482;51.398;7.128;2023-04-03T14:34:57;8.30;1.00
2945;DHT22;1482;51.398;7.128;2023-04-03T14:37:26;8.30;1.00
2945;DHT22;1482;51.398;7.128;2023-04-03T14:39:53;8.30;1.00
2945;DHT22;1482;51.398;7.128;2023-04-03T14:42:25;8.50;1.00
2945;DHT22;1482;51.398;7.128;2023-04-03T14:44:52;8.50;1.00
2945;DHT22;1482;51.398;7.128;2023-04-03T14:47:23;8.50;1.00
2945;DHT22;1482;51.398;7.128;2023-04-03T14:49:50;8.50;1.00
2945;DHT22;1482;51.398;7.128;2023-04-03T14:52:25;8.20;1.00
2945;DHT22;1482;51.398;7.128;2023-04-03T14:54:52;8.00;1.00
2945;DHT22;1482;51.398;7.128;2023-04-03T14:57:18;8.20;1.00
2945;DHT22;1482;51.398;7.128;2023-04-03T14:59:45;8.20;1.00
2945;DHT22;1482;51.398;7.128;2023-04-03T15:04:51;8.30;1.00
2945;DHT22;1482;51.398;7.128;2023-04-03T15:07:17;8.40;1.00
2945;DHT22;1482;51.398;7.128;2023-04-03T15:09:43;8.20;1.00
2945;DHT22;1482;51.398;7.128;2023-04-03T15:12:09;8.30;1.00
2945;DHT22;1482;51.398;7.128;2023-04-03T15:14:35;8.40;1.00
2945;DHT22;1482;51.398;7.128;2023-04-03T15:17:01;8.10;1.00
2945;DHT22;1482;51.398;7.128;2023-04-03T15:19:28;8.20;1.00
2945;DHT22;1482;51.398;7.128;2023-04-03T15:21:53;8.00;1.00
2945;DHT22;1482;51.398;7.128;2023-04-03T15:24:19;7.90;1.00
2945;DHT22;1482;51.398;7.128;2023-04-03T15:26:44;8.00;1.00
2945;DHT22;1482;51.398;7.128;2023-04-03T15:29:10;8.00;1.00
2945;DHT22;1482;51.398;7.128;2023-04-03T15:31:35;8.00;1.00
2945;DHT22;1482;51.398;7.128;2023-04-03T15:34:02;8.00;1.00
2945;DHT22;1482;51.398;7.128;2023-04-03T15:36:28;8.20;1.00
2945;DHT22;1482;51.398;7.128;2023-04-03T15:38:53;8.20;1.00
2945;DHT22;1482;51.398;7.128;2023-04-03T15:41:19;8.30;1.00
2945;DHT22;1482;51.398;7.128;2023-04-03T15:43:45;7.90;1.00
2945;DHT22;1482;51.398;7.128;2023-04-03T15:46:12;8.00;1.00
2945;DHT22;1482;51.398;7.128;2023-04-03T15:48:38;8.00;1.00
2945;DHT22;1482;51.398;7.128;2023-04-03T15:51:05;7.80;1.00
2945;DHT22;1482;51.398;7.128;2023-04-03T15:53:32;7.90;1.00
2945;DHT22;1482;51.398;7.128;2023-04-03T15:55:57;8.00;1.00
2945;DHT22;1482;51.398;7.128;2023-04-03T15:58:23;8.00;1.00
2945;DHT22;1482;51.398;7.128;2023-04-03T16:00:48;8.10;1.00
2945;DHT22;1482;51.398;7.128;2023-04-03T16:03:19;7.90;1.00
2945;DHT22;1482;51.398;7.128;2023-04-03T16:05:46;7.90;1.00
2945;DHT22;1482;51.398;7.128;2023-04-03T16:08:11;7.80;1.00
2945;DHT22;1482;51.398;7.128;2023-04-03T16:10:37;7.80;1.00
2945;DHT22;1482;51.398;7.128;2023-04-03T16:13:04;7.80;1.00
2945;DHT22;1482;51.398;7.128;2023-04-03T16:15:30;7.50;1.00
2945;DHT22;1482;51.398;7.128;2023-04-03T16:17:57;7.50;1.00
2945;DHT22;1482;51.398;7.128;2023-04-03T16:20:23;7.40;1.00
2945;DHT22;1482;51.398;7.128;2023-04-03T16:22:49;7.40;1.00
2945;DHT22;1482;51.398;7.128;2023-04-03T16:25:15;7.40;1.00
2945;DHT22;1482;51.398;7.128;2023-04-03T16:27:41;7.40;1.00
2945;DHT22;1482;51.398;7.128;2023-04-03T16:30:07;7.40;1.00
2945;DHT22;1482;51.398;7.128;2023-04-03T16:32:33;7.30;1.00
2945;DHT22;1482;51.398;7.128;2023-04-03T16:34:59;7.40;1.00
2945;DHT22;1482;51.398;7.128;2023-04-03T16:37:25;7.40;1.00
2945;DHT22;1482;51.398;7.128;2023-04-03T16:39:51;7.40;1.00
2945;DHT22;1482;51.398;7.128;2023-04-03T16:42:17;7.20;1.00
2945;DHT22;1482;51.398;7.128;2023-04-03T16:44:42;6.90;1.00
2945;DHT22;1482;51.398;7.128;2023-04-03T16:47:09;7.10;1.00
2945;DHT22;1482;51.398;7.128;2023-04-03T16:49:35;7.10;1.00
2945;DHT22;1482;51.398;7.128;2023-04-03T16:52:02;7.10;1.00
2945;DHT22;1482;51.398;7.128;2023-04-03T16:54:28;7.20;1.00
2945;DHT22;1482;51.398;7.128;2023-04-03T16:56:54;7.10;1.00
2945;DHT22;1482;51.398;7.128;2023-04-03T16:59:20;7.10;1.00
2945;DHT22;1482;51.398;7.128;2023-04-03T17:01:46;7.00;1.00
2945;DHT22;1482;51.398;7.128;2023-04-03T17:04:11;6.90;1.00
2945;DHT22;1482;51.398;7.128;2023-04-03T17:06:38;7.00;1.00
2945;DHT22;1482;51.398;7.128;2023-04-03T17:09:04;7.00;1.00
2945;DHT22;1482;51.398;7.128;2023-04-03T17:11:30;7.00;1.00
2945;DHT22;1482;51.398;7.128;2023-04-03T17:13:56;6.80;1.00
2945;DHT22;1482;51.398;7.128;2023-04-03T17:16:23;6.70;1.00
2945;DHT22;1482;51.398;7.128;2023-04-03T17:18:49;6.80;1.00
2945;DHT22;1482;51.398;7.128;2023-04-03T17:21:16;6.70;1.00
2945;DHT22;1482;51.398;7.128;2023-04-03T17:23:44;6.60;1.00
2945;DHT22;1482;51.398;7.128;2023-04-03T17:26:11;6.50;1.00
2945;DHT22;1482;51.398;7.128;2023-04-03T17:28:37;6.60;1.00
2945;DHT22;1482;51.398;7.128;2023-04-03T17:31:05;6.50;1.00
2945;DHT22;1482;51.398;7.128;2023-04-03T17:33:31;6.50;1.00
2945;DHT22;1482;51.398;7.128;2023-04-03T17:35:58;6.40;1.00
2945;DHT22;1482;51.398;7.128;2023-04-03T17:38:23;6.30;1.00
2945;DHT22;1482;51.398;7.128;2023-04-03T17:40:49;6.30;1.00
2945;DHT22;1482;51.398;7.128;2023-04-03T17:43:15;6.20;1.00
2945;DHT22;1482;51.398;7.128;2023-04-03T17:45:41;6.20;1.00
2945;DHT22;1482;51.398;7.128;2023-04-03T17:48:06;6.10;1.00
2945;DHT22;1482;51.398;7.128;2023-04-03T17:50:32;6.00;1.00
2945;DHT22;1482;51.398;7.128;2023-04-03T17:52:57;6.00;1.00
2945;DHT22;1482;51.398;7.128;2023-04-03T17:55:23;6.00;1.00
2945;DHT22;1482;51.398;7.128;2023-04-03T17:57:49;6.00;1.00
2945;DHT22;1482;51.398;7.128;2023-04-03T18:00:15;5.90;1.00
2945;DHT22;1482;51.398;7.128;2023-04-03T18:02:41;5.90;1.00
2945;DHT22;1482;51.398;7.128;2023-04-03T18:05:08;5.80;1.00
2945;DHT22;1482;51.398;7.128;2023-04-03T18:07:38;5.80;1.00
2945;DHT22;1482;51.398;7.128;2023-04-03T18:10:05;5.90;1.00
2945;DHT22;1482;51.398;7.128;2023-04-03T18:12:33;5.90;1.00
2945;DHT22;1482;51.398;7.128;2023-04-03T18:14:59;5.80;1.00
2945;DHT22;1482;51.398;7.128;2023-04-03T18:17:25;5.70;1.00